createdAt,value
2018-05-25T00:00:10.347Z,15.94
2018-05-25T00:01:10.329Z,15.96
2018-05-25T00:02:10.310Z,15.92
2018-05-25T00:03:10.291Z,15.92
2018-05-25T00:04:10.274Z,15.93
2018-05-25T00:05:10.257Z,16.00
2018-05-25T00:06:10.235Z,15.92
2018-05-25T00:07:10.216Z,15.86
2018-05-25T00:08:10.197Z,15.94
2018-05-25T00:09:10.184Z,15.86
2018-05-25T00:10:10.160Z,15.88
2018-05-25T00:11:10.141Z,15.86
2018-05-25T00:12:10.123Z,15.82
2018-05-25T00:13:10.111Z,15.84
2018-05-25T00:14:10.086Z,15.76
2018-05-25T00:15:10.067Z,15.68
2018-05-25T00:16:10.052Z,15.70
2018-05-25T00:17:10.031Z,15.81
2018-05-25T00:18:10.010Z,15.79
2018-05-25T00:19:09.990Z,15.79
2018-05-25T00:20:09.972Z,15.68
2018-05-25T00:21:09.953Z,15.74
2018-05-25T00:22:09.933Z,15.70
2018-05-25T00:23:09.915Z,15.68
2018-05-25T00:24:09.896Z,15.74
2018-05-25T00:25:09.876Z,15.82
2018-05-25T00:26:09.858Z,15.78
2018-05-25T00:27:09.844Z,15.79
2018-05-25T00:28:09.818Z,15.70
2018-05-25T00:29:09.799Z,15.74
2018-05-25T00:30:09.781Z,15.59
2018-05-25T00:31:09.761Z,15.57
2018-05-25T00:32:09.742Z,15.48
2018-05-25T00:33:09.724Z,15.54
2018-05-25T00:34:09.704Z,15.57
2018-05-25T00:35:09.684Z,15.56
2018-05-25T00:36:09.665Z,15.49
2018-05-25T00:37:09.646Z,15.54
2018-05-25T00:38:09.627Z,15.54
2018-05-25T00:39:09.608Z,15.54
2018-05-25T00:40:09.588Z,15.59
2018-05-25T00:41:09.570Z,15.61
2018-05-25T00:42:09.551Z,15.66
2018-05-25T00:43:09.531Z,15.72
2018-05-25T00:44:10.262Z,15.75
2018-05-25T00:45:09.493Z,15.70
2018-05-25T00:46:09.472Z,15.74
2018-05-25T00:47:09.455Z,15.70
2018-05-25T00:48:09.434Z,15.57
2018-05-25T00:49:09.415Z,15.56
2018-05-25T00:50:09.394Z,15.43
2018-05-25T00:51:09.375Z,15.30
2018-05-25T00:52:09.356Z,15.30
2018-05-25T00:53:09.339Z,15.23
2018-05-25T00:54:09.317Z,15.31
2018-05-25T00:55:09.297Z,15.38
2018-05-25T00:56:09.279Z,15.48
2018-05-25T00:57:09.261Z,15.48
2018-05-25T00:58:09.244Z,15.42
2018-05-25T00:59:09.221Z,15.54
2018-05-25T01:00:09.200Z,15.49
2018-05-25T01:01:09.182Z,15.52
2018-05-25T01:02:09.162Z,15.61
2018-05-25T01:03:09.142Z,15.48
2018-05-25T01:04:09.124Z,15.54
2018-05-25T01:05:09.103Z,15.51
2018-05-25T01:06:09.083Z,15.38
2018-05-25T01:07:09.063Z,15.42
2018-05-25T01:08:09.044Z,15.46
2018-05-25T01:09:09.027Z,15.45
2018-05-25T01:10:09.007Z,15.27
2018-05-25T01:11:08.987Z,15.31
2018-05-25T01:12:09.718Z,15.19
2018-05-25T01:13:08.948Z,15.26
2018-05-25T01:14:08.930Z,15.27
2018-05-25T01:15:08.908Z,15.19
2018-05-25T01:16:08.889Z,15.11
2018-05-25T01:17:08.868Z,15.11
2018-05-25T01:18:08.847Z,15.05
2018-05-25T01:19:08.829Z,15.01
2018-05-25T01:20:08.813Z,15.02
2018-05-25T01:21:08.790Z,15.02
2018-05-25T01:22:08.771Z,14.95
2018-05-25T01:23:08.752Z,15.01
2018-05-25T01:24:08.731Z,14.90
2018-05-25T01:25:08.713Z,14.93
2018-05-25T01:26:08.692Z,14.95
2018-05-25T01:27:08.672Z,14.84
2018-05-25T01:28:08.653Z,14.94
2018-05-25T01:29:08.633Z,14.84
2018-05-25T01:30:08.612Z,14.84
2018-05-25T01:31:08.594Z,14.80
2018-05-25T01:32:08.575Z,14.88
2018-05-25T01:33:08.554Z,14.80
2018-05-25T01:34:08.534Z,14.75
2018-05-25T01:35:08.514Z,14.78
2018-05-25T01:36:08.495Z,14.81
2018-05-25T01:37:08.476Z,14.94
2018-05-25T01:38:08.455Z,14.87
2018-05-25T01:39:08.436Z,14.95
2018-05-25T01:40:08.418Z,14.86
2018-05-25T01:41:08.397Z,14.93
2018-05-25T01:42:08.375Z,14.86
2018-05-25T01:43:08.357Z,14.81
2018-05-25T01:44:08.337Z,14.87
2018-05-25T01:45:08.316Z,14.80
2018-05-25T01:46:08.295Z,14.88
2018-05-25T01:47:08.277Z,14.94
2018-05-25T01:48:08.257Z,14.88
2018-05-25T01:49:08.236Z,14.91
2018-05-25T01:50:08.215Z,14.87
2018-05-25T01:51:08.197Z,14.83
2018-05-25T01:52:08.180Z,14.81
2018-05-25T01:53:08.157Z,14.87
2018-05-25T01:54:08.137Z,14.90
2018-05-25T01:55:08.117Z,14.54
2018-05-25T01:56:08.098Z,14.53
2018-05-25T01:57:08.083Z,14.53
2018-05-25T01:58:08.056Z,14.53
2018-05-25T01:59:08.037Z,14.47
2018-05-25T02:00:08.017Z,14.56
2018-05-25T02:01:07.998Z,14.44
2018-05-25T02:02:07.977Z,14.39
2018-05-25T02:03:07.956Z,14.42
2018-05-25T02:04:07.938Z,14.44
2018-05-25T02:05:07.918Z,14.38
2018-05-25T02:06:07.898Z,14.35
2018-05-25T02:07:07.877Z,14.31
2018-05-25T02:08:07.858Z,14.42
2018-05-25T02:09:07.837Z,14.39
2018-05-25T02:10:07.817Z,14.50
2018-05-25T02:11:07.808Z,14.42
2018-05-25T02:12:07.778Z,14.39
2018-05-25T02:13:07.756Z,14.34
2018-05-25T02:14:07.736Z,14.44
2018-05-25T02:15:07.716Z,14.50
2018-05-25T02:16:07.697Z,14.53
2018-05-25T02:17:07.678Z,14.50
2018-05-25T02:18:07.656Z,14.54
2018-05-25T02:19:07.636Z,14.56
2018-05-25T02:20:07.616Z,14.49
2018-05-25T02:21:07.596Z,14.56
2018-05-25T02:22:07.575Z,14.54
2018-05-25T02:23:07.555Z,14.60
2018-05-25T02:24:07.535Z,14.61
2018-05-25T02:25:07.514Z,14.62
2018-05-25T02:26:07.494Z,14.61
2018-05-25T02:27:07.475Z,14.62
2018-05-25T02:28:07.453Z,14.64
2018-05-25T02:29:07.434Z,14.72
2018-05-25T02:30:07.414Z,14.72
2018-05-25T02:31:07.399Z,14.68
2018-05-25T02:32:07.373Z,14.72
2018-05-25T02:33:07.353Z,14.74
2018-05-25T02:34:07.333Z,14.74
2018-05-25T02:35:07.313Z,14.74
2018-05-25T02:36:07.294Z,14.68
2018-05-25T02:37:07.274Z,14.69
2018-05-25T02:38:07.251Z,14.67
2018-05-25T02:39:07.235Z,14.65
2018-05-25T02:40:07.212Z,14.64
2018-05-25T02:41:07.197Z,14.62
2018-05-25T02:42:07.171Z,14.67
2018-05-25T02:43:07.150Z,14.56
2018-05-25T02:44:07.130Z,14.54
2018-05-25T02:45:07.110Z,14.46
2018-05-25T02:46:07.090Z,14.44
2018-05-25T02:47:07.071Z,14.43
2018-05-25T02:48:07.051Z,14.52
2018-05-25T02:49:07.032Z,14.53
2018-05-25T02:50:07.011Z,14.43
2018-05-25T02:51:06.990Z,14.46
2018-05-25T02:52:06.971Z,14.46
2018-05-25T02:53:06.949Z,14.46
2018-05-25T02:54:06.928Z,14.43
2018-05-25T02:55:06.909Z,14.46
2018-05-25T02:56:06.888Z,14.53
2018-05-25T02:57:06.868Z,14.54
2018-05-25T02:58:06.848Z,14.46
2018-05-25T02:59:06.826Z,14.47
2018-05-25T03:00:06.807Z,14.46
2018-05-25T03:01:06.786Z,14.47
2018-05-25T03:02:06.766Z,14.32
2018-05-25T03:03:06.746Z,14.37
2018-05-25T03:04:06.725Z,14.37
2018-05-25T03:05:06.710Z,14.28
2018-05-25T03:06:06.689Z,14.35
2018-05-25T03:07:06.663Z,14.28
2018-05-25T03:08:06.650Z,14.32
2018-05-25T03:09:06.631Z,14.31
2018-05-25T03:10:06.602Z,14.29
2018-05-25T03:11:06.585Z,14.34
2018-05-25T03:12:06.563Z,14.29
2018-05-25T03:13:06.541Z,14.32
2018-05-25T03:14:06.574Z,14.34
2018-05-25T03:15:06.509Z,14.27
2018-05-25T03:16:06.481Z,14.31
2018-05-25T03:17:06.506Z,14.29
2018-05-25T03:18:06.442Z,14.17
2018-05-25T03:19:06.419Z,14.16
2018-05-25T03:20:06.399Z,14.14
2018-05-25T03:21:06.378Z,14.13
2018-05-25T03:22:06.357Z,14.12
2018-05-25T03:23:06.337Z,14.14
2018-05-25T03:24:07.068Z,14.19
2018-05-25T03:25:06.296Z,14.13
2018-05-25T03:26:06.300Z,14.21
2018-05-25T03:27:06.255Z,14.07
2018-05-25T03:28:06.235Z,14.12
2018-05-25T03:29:06.215Z,14.07
2018-05-25T03:30:06.193Z,14.13
2018-05-25T03:31:06.175Z,14.14
2018-05-25T03:32:06.154Z,14.16
2018-05-25T03:33:06.132Z,14.14
2018-05-25T03:34:06.130Z,14.14
2018-05-25T03:35:06.092Z,14.13
2018-05-25T03:36:06.077Z,14.14
2018-05-25T03:37:06.055Z,14.14
2018-05-25T03:38:06.031Z,14.04
2018-05-25T03:39:06.010Z,14.07
2018-05-25T03:40:05.990Z,14.10
2018-05-25T03:41:05.971Z,14.12
2018-05-25T03:42:05.950Z,14.12
2018-05-25T03:43:05.928Z,14.12
2018-05-25T03:44:05.909Z,14.13
2018-05-25T03:45:05.888Z,14.14
2018-05-25T03:46:05.871Z,14.17
2018-05-25T03:47:05.847Z,14.20
2018-05-25T03:48:05.828Z,14.09
2018-05-25T03:49:05.807Z,14.20
2018-05-25T03:50:05.785Z,14.12
2018-05-25T03:51:05.766Z,14.16
2018-05-25T03:52:05.745Z,14.17
2018-05-25T03:53:05.726Z,14.10
2018-05-25T03:54:05.704Z,14.02
2018-05-25T03:55:05.683Z,14.12
2018-05-25T03:56:05.663Z,14.09
2018-05-25T03:57:05.643Z,14.13
2018-05-25T03:58:05.621Z,14.21
2018-05-25T03:59:05.602Z,14.14
2018-05-25T04:00:05.587Z,14.19
2018-05-25T04:01:05.566Z,14.20
2018-05-25T04:02:05.541Z,14.14
2018-05-25T04:03:05.521Z,14.24
2018-05-25T04:04:05.500Z,14.17
2018-05-25T04:05:05.481Z,14.24
2018-05-25T04:06:05.459Z,14.29
2018-05-25T04:07:05.439Z,14.19
2018-05-25T04:08:05.419Z,14.29
2018-05-25T04:09:05.398Z,14.29
2018-05-25T04:10:05.378Z,14.29
2018-05-25T04:11:06.108Z,14.31
2018-05-25T04:12:05.339Z,14.28
2018-05-25T04:13:05.316Z,14.31
2018-05-25T04:14:05.295Z,14.29
2018-05-25T04:15:05.276Z,14.29
2018-05-25T04:16:05.255Z,14.32
2018-05-25T04:17:05.236Z,14.31
2018-05-25T04:18:05.214Z,14.29
2018-05-25T04:19:05.194Z,14.34
2018-05-25T04:20:05.174Z,14.39
2018-05-25T04:21:05.153Z,14.37
2018-05-25T04:22:05.136Z,14.29
2018-05-25T04:23:05.113Z,14.32
2018-05-25T04:24:05.093Z,14.42
2018-05-25T04:25:05.072Z,14.44
2018-05-25T04:26:05.050Z,14.53
2018-05-25T04:27:05.033Z,14.52
2018-05-25T04:28:05.012Z,14.50
2018-05-25T04:29:04.991Z,14.53
2018-05-25T04:30:04.970Z,14.47
2018-05-25T04:31:04.950Z,14.60
2018-05-25T04:32:04.928Z,14.56
2018-05-25T04:33:04.910Z,14.53
2018-05-25T04:34:04.888Z,14.56
2018-05-25T04:35:04.867Z,14.65
2018-05-25T04:36:04.849Z,14.56
2018-05-25T04:37:04.828Z,14.56
2018-05-25T04:38:04.807Z,14.64
2018-05-25T04:39:04.788Z,14.68
2018-05-25T04:40:04.766Z,14.67
2018-05-25T04:41:04.748Z,14.78
2018-05-25T04:42:04.725Z,14.74
2018-05-25T04:43:04.705Z,14.83
2018-05-25T04:44:04.686Z,14.87
2018-05-25T04:45:04.665Z,14.99
2018-05-25T04:46:50.590Z,14.90
2018-05-25T04:47:04.626Z,14.88
2018-05-25T04:48:06.108Z,14.94
2018-05-25T04:49:04.587Z,14.93
2018-05-25T04:50:04.564Z,14.94
2018-05-25T04:51:04.543Z,15.05
2018-05-25T04:52:04.524Z,15.02
2018-05-25T04:53:04.505Z,14.98
2018-05-25T04:54:04.484Z,15.01
2018-05-25T04:55:04.463Z,15.11
2018-05-25T04:56:04.443Z,15.11
2018-05-25T04:57:04.424Z,15.11
2018-05-25T04:58:04.404Z,15.23
2018-05-25T04:59:04.385Z,15.19
2018-05-25T05:00:04.363Z,15.24
2018-05-25T05:01:04.343Z,15.31
2018-05-25T05:02:04.322Z,15.27
2018-05-25T05:03:04.303Z,15.27
2018-05-25T05:04:04.283Z,15.31
2018-05-25T05:05:04.269Z,15.28
2018-05-25T05:06:04.243Z,15.35
2018-05-25T05:07:04.222Z,15.28
2018-05-25T05:08:04.207Z,15.38
2018-05-25T05:09:04.185Z,15.31
2018-05-25T05:10:04.163Z,15.49
2018-05-25T05:11:04.143Z,15.43
2018-05-25T05:12:04.125Z,15.48
2018-05-25T05:13:04.107Z,15.48
2018-05-25T05:14:04.083Z,15.45
2018-05-25T05:15:04.065Z,15.48
2018-05-25T05:16:04.044Z,15.57
2018-05-25T05:17:04.027Z,15.56
2018-05-25T05:18:04.005Z,15.64
2018-05-25T05:19:03.985Z,15.66
2018-05-25T05:20:03.965Z,15.59
2018-05-25T05:21:03.945Z,15.61
2018-05-25T05:22:03.926Z,15.67
2018-05-25T05:23:03.957Z,15.72
2018-05-25T05:24:03.886Z,15.82
2018-05-25T05:25:03.867Z,15.79
2018-05-25T05:26:03.846Z,15.88
2018-05-25T05:27:03.827Z,15.96
2018-05-25T05:28:03.807Z,15.99
2018-05-25T05:29:03.795Z,16.00
2018-05-25T05:30:03.769Z,16.03
2018-05-25T05:31:03.748Z,16.07
2018-05-25T05:32:03.729Z,16.00
2018-05-25T05:33:03.710Z,16.11
2018-05-25T05:34:03.690Z,16.07
2018-05-25T05:35:04.421Z,16.14
2018-05-25T05:36:03.652Z,16.15
2018-05-25T05:37:03.630Z,16.23
2018-05-25T05:38:03.610Z,16.18
2018-05-25T05:39:03.592Z,16.26
2018-05-25T05:40:03.572Z,16.33
2018-05-25T05:41:03.553Z,16.30
2018-05-25T05:42:03.532Z,16.30
2018-05-25T05:43:03.513Z,16.34
2018-05-25T05:44:03.493Z,16.44
2018-05-25T05:45:03.476Z,16.45
2018-05-25T05:46:03.455Z,16.56
2018-05-25T05:47:03.435Z,16.55
2018-05-25T05:48:03.416Z,16.60
2018-05-25T05:49:03.426Z,16.67
2018-05-25T05:50:03.377Z,16.67
2018-05-25T05:51:03.359Z,16.88
2018-05-25T05:52:03.341Z,16.78
2018-05-25T05:53:03.322Z,16.78
2018-05-25T05:54:03.302Z,16.89
2018-05-25T05:55:03.282Z,16.83
2018-05-25T05:56:03.262Z,16.85
2018-05-25T05:57:03.245Z,16.85
2018-05-25T05:58:03.225Z,16.85
2018-05-25T05:59:03.207Z,16.89
2018-05-25T06:00:03.188Z,16.93
2018-05-25T06:01:03.169Z,17.04
2018-05-25T06:02:03.151Z,17.08
2018-05-25T06:03:03.128Z,17.04
2018-05-25T06:04:03.114Z,17.06
2018-05-25T06:05:03.091Z,17.03
2018-05-25T06:06:03.072Z,17.08
2018-05-25T06:07:03.054Z,17.10
2018-05-25T06:08:03.035Z,17.13
2018-05-25T06:09:03.016Z,17.15
2018-05-25T06:10:02.997Z,17.20
2018-05-25T06:11:05.231Z,17.18
2018-05-25T06:12:02.959Z,17.23
2018-05-25T06:13:02.943Z,17.25
2018-05-25T06:14:02.920Z,17.25
2018-05-25T06:15:02.904Z,17.35
2018-05-25T06:16:02.883Z,17.22
2018-05-25T06:17:02.865Z,17.38
2018-05-25T06:18:02.845Z,17.30
2018-05-25T06:19:02.827Z,17.28
2018-05-25T06:20:02.829Z,17.33
2018-05-25T06:21:02.790Z,17.38
2018-05-25T06:22:02.770Z,17.36
2018-05-25T06:23:02.751Z,17.28
2018-05-25T06:24:02.734Z,17.35
2018-05-25T06:25:02.716Z,17.35
2018-05-25T06:26:02.697Z,17.43
2018-05-25T06:27:02.677Z,17.50
2018-05-25T06:28:03.410Z,17.62
2018-05-25T06:29:02.641Z,17.76
2018-05-25T06:30:02.622Z,17.79
2018-05-25T06:31:02.603Z,17.89
2018-05-25T06:32:02.587Z,17.87
2018-05-25T06:33:02.570Z,17.79
2018-05-25T06:34:02.548Z,17.76
2018-05-25T06:35:02.530Z,17.95
2018-05-25T06:36:02.512Z,17.97
2018-05-25T06:37:02.494Z,18.03
2018-05-25T06:38:02.474Z,18.00
2018-05-25T06:39:03.213Z,18.04
2018-05-25T06:40:02.437Z,18.15
2018-05-25T06:41:02.420Z,18.12
2018-05-25T06:42:02.400Z,18.17
2018-05-25T06:43:02.387Z,18.22
2018-05-25T06:44:02.368Z,18.36
2018-05-25T06:45:02.349Z,18.39
2018-05-25T06:46:02.333Z,18.47
2018-05-25T06:47:02.310Z,18.65
2018-05-25T06:48:02.296Z,18.68
2018-05-25T06:49:02.275Z,18.50
2018-05-25T06:50:03.007Z,18.50
2018-05-25T06:51:02.241Z,18.62
2018-05-25T06:52:02.220Z,18.62
2018-05-25T06:53:02.202Z,18.61
2018-05-25T06:54:02.186Z,18.65
2018-05-25T06:55:02.170Z,18.62
2018-05-25T06:56:02.149Z,18.64
2018-05-25T06:57:02.129Z,18.74
2018-05-25T06:58:02.153Z,18.76
2018-05-25T06:59:02.093Z,18.91
2018-05-25T07:00:02.082Z,18.87
2018-05-25T07:01:02.059Z,18.90
2018-05-25T07:02:02.040Z,18.95
2018-05-25T07:03:02.023Z,18.98
2018-05-25T07:04:02.065Z,19.10
2018-05-25T07:05:01.988Z,18.95
2018-05-25T07:06:01.968Z,19.06
2018-05-25T07:07:01.952Z,18.99
2018-05-25T07:08:01.938Z,18.95
2018-05-25T07:09:01.916Z,18.98
2018-05-25T07:10:01.898Z,19.08
2018-05-25T07:11:01.883Z,19.08
2018-05-25T07:12:01.866Z,19.08
2018-05-25T07:13:01.847Z,19.18
2018-05-25T07:14:01.828Z,19.14
2018-05-25T07:15:01.811Z,19.11
2018-05-25T07:16:01.794Z,18.99
2018-05-25T07:17:01.820Z,19.10
2018-05-25T07:18:01.758Z,19.21
2018-05-25T07:19:01.741Z,19.28
2018-05-25T07:20:01.725Z,19.48
2018-05-25T07:21:01.706Z,19.60
2018-05-25T07:22:01.689Z,19.68
2018-05-25T07:23:01.671Z,19.72
2018-05-25T07:24:01.654Z,19.69
2018-05-25T07:25:01.636Z,19.75
2018-05-25T07:26:01.618Z,19.66
2018-05-25T07:27:01.603Z,19.87
2018-05-25T07:28:01.584Z,20.00
2018-05-25T07:29:01.567Z,20.05
2018-05-25T07:30:01.552Z,20.08
2018-05-25T07:31:01.537Z,20.06
2018-05-25T07:32:01.515Z,20.18
2018-05-25T07:33:01.500Z,20.28
2018-05-25T07:34:01.480Z,20.30
2018-05-25T07:35:01.465Z,20.33
2018-05-25T07:36:01.448Z,20.38
2018-05-25T07:37:01.432Z,20.43
2018-05-25T07:38:01.418Z,20.41
2018-05-25T07:39:01.396Z,20.54
2018-05-25T07:40:01.381Z,20.50
2018-05-25T07:41:01.365Z,20.43
2018-05-25T07:42:01.345Z,20.49
2018-05-25T07:43:02.087Z,20.38
2018-05-25T07:44:01.312Z,20.41
2018-05-25T07:45:01.300Z,20.27
2018-05-25T07:46:01.279Z,20.28
2018-05-25T07:47:01.261Z,20.34
2018-05-25T07:48:01.248Z,20.16
2018-05-25T07:49:01.232Z,20.24
2018-05-25T07:50:01.212Z,20.25
2018-05-25T07:51:01.195Z,20.20
2018-05-25T07:52:01.179Z,20.33
2018-05-25T07:53:01.165Z,20.39
2018-05-25T07:54:01.145Z,20.50
2018-05-25T07:55:01.129Z,20.62
2018-05-25T07:56:01.113Z,20.65
2018-05-25T07:57:01.096Z,20.81
2018-05-25T07:58:01.079Z,20.80
2018-05-25T07:59:01.064Z,20.91
2018-05-25T08:00:01.046Z,20.87
2018-05-25T08:01:01.032Z,20.96
2018-05-25T08:02:01.014Z,20.98
2018-05-25T08:03:00.997Z,20.89
2018-05-25T08:04:00.981Z,20.91
2018-05-25T08:05:00.966Z,20.98
2018-05-25T08:06:00.949Z,21.05
2018-05-25T08:07:00.931Z,21.13
2018-05-25T08:08:00.915Z,21.32
2018-05-25T08:09:00.900Z,21.36
2018-05-25T08:10:01.635Z,21.30
2018-05-25T08:11:00.870Z,21.32
2018-05-25T08:12:00.884Z,21.44
2018-05-25T08:13:00.835Z,21.51
2018-05-25T08:14:00.818Z,21.30
2018-05-25T08:15:00.803Z,21.17
2018-05-25T08:16:00.787Z,20.91
2018-05-25T08:17:00.771Z,21.02
2018-05-25T08:18:00.755Z,21.06
2018-05-25T08:19:00.738Z,21.09
2018-05-25T08:20:00.726Z,21.23
2018-05-25T08:21:00.708Z,21.35
2018-05-25T08:22:00.702Z,21.35
2018-05-25T08:23:00.675Z,21.39
2018-05-25T08:24:00.661Z,21.41
2018-05-25T08:25:00.644Z,21.44
2018-05-25T08:26:00.627Z,21.48
2018-05-25T08:27:00.611Z,21.41
2018-05-25T08:28:00.595Z,21.35
2018-05-25T08:29:00.580Z,21.46
2018-05-25T08:30:00.563Z,21.36
2018-05-25T08:31:00.548Z,20.93
2018-05-25T08:32:00.531Z,20.93
2018-05-25T08:33:00.517Z,21.11
2018-05-25T08:34:00.499Z,21.17
2018-05-25T08:35:00.484Z,21.20
2018-05-25T08:36:00.469Z,21.36
2018-05-25T08:37:00.452Z,21.42
2018-05-25T08:38:00.437Z,21.56
2018-05-25T08:39:00.421Z,21.57
2018-05-25T08:40:00.404Z,21.61
2018-05-25T08:41:00.389Z,21.61
2018-05-25T08:42:00.372Z,21.81
2018-05-25T08:43:00.357Z,21.94
2018-05-25T08:44:00.345Z,22.07
2018-05-25T08:45:00.325Z,22.14
2018-05-25T08:46:00.311Z,22.28
2018-05-25T08:47:00.295Z,22.27
2018-05-25T08:48:00.278Z,22.23
2018-05-25T08:49:00.263Z,22.28
2018-05-25T08:50:00.259Z,22.09
2018-05-25T08:51:00.242Z,21.82
2018-05-25T08:52:00.216Z,21.76
2018-05-25T08:53:00.202Z,21.83
2018-05-25T08:54:00.186Z,21.92
2018-05-25T08:55:00.170Z,22.06
2018-05-25T08:56:00.154Z,22.06
2018-05-25T08:57:00.143Z,22.19
2018-05-25T08:58:00.126Z,22.13
2018-05-25T08:59:00.108Z,22.06
2018-05-25T09:00:00.092Z,22.06
2018-05-25T09:01:00.076Z,21.99
2018-05-25T09:02:00.061Z,22.17
2018-05-25T09:03:00.048Z,22.17
2018-05-25T09:04:00.030Z,22.19
2018-05-25T09:05:00.014Z,22.16
2018-05-25T09:06:00.001Z,22.32
2018-05-25T09:06:59.983Z,22.23
2018-05-25T09:07:59.967Z,22.37
2018-05-25T09:08:59.953Z,22.35
2018-05-25T09:09:59.937Z,22.37
2018-05-25T09:10:59.964Z,22.46
2018-05-25T09:11:59.910Z,22.47
2018-05-25T09:12:59.890Z,22.54
2018-05-25T09:13:59.878Z,22.50
2018-05-25T09:14:59.861Z,22.53
2018-05-25T09:15:59.844Z,22.69
2018-05-25T09:16:59.830Z,22.72
2018-05-25T09:17:59.814Z,22.72
2018-05-25T09:18:59.798Z,22.62
2018-05-25T09:19:59.783Z,22.71
2018-05-25T09:20:59.771Z,22.71
2018-05-25T09:21:59.753Z,22.86
2018-05-25T09:22:59.739Z,23.05
2018-05-25T09:23:59.722Z,23.14
2018-05-25T09:24:59.707Z,23.11
2018-05-25T09:25:59.692Z,23.04
2018-05-25T09:26:59.678Z,22.84
2018-05-25T09:27:59.662Z,22.68
2018-05-25T09:29:00.397Z,22.82
2018-05-25T09:29:59.635Z,22.84
2018-05-25T09:30:59.675Z,22.93
2018-05-25T09:31:59.604Z,22.87
2018-05-25T09:32:59.586Z,22.84
2018-05-25T09:33:59.572Z,22.90
2018-05-25T09:34:59.559Z,22.93
2018-05-25T09:35:59.542Z,22.92
2018-05-25T09:36:59.527Z,23.04
2018-05-25T09:37:59.512Z,23.12
2018-05-25T09:38:59.496Z,23.14
2018-05-25T09:39:59.482Z,23.19
2018-05-25T09:40:59.466Z,23.34
2018-05-25T09:41:59.452Z,23.40
2018-05-25T09:42:59.435Z,23.22
2018-05-25T09:43:59.420Z,23.24
2018-05-25T09:44:59.405Z,23.27
2018-05-25T09:45:59.390Z,23.45
2018-05-25T09:46:59.382Z,23.49
2018-05-25T09:47:59.360Z,23.35
2018-05-25T09:48:59.348Z,23.14
2018-05-25T09:49:59.334Z,22.93
2018-05-25T09:50:59.315Z,22.97
2018-05-25T09:51:59.301Z,23.01
2018-05-25T09:52:59.288Z,23.08
2018-05-25T09:53:59.271Z,23.23
2018-05-25T09:54:59.257Z,23.34
2018-05-25T09:55:59.277Z,23.52
2018-05-25T09:56:59.229Z,23.58
2018-05-25T09:57:59.216Z,23.71
2018-05-25T09:58:59.203Z,23.77
2018-05-25T09:59:59.189Z,23.94
2018-05-25T10:00:59.169Z,23.75
2018-05-25T10:01:59.152Z,23.85
2018-05-25T10:02:59.138Z,23.72
2018-05-25T10:03:59.123Z,23.77
2018-05-25T10:04:59.108Z,23.76
2018-05-25T10:05:59.093Z,23.77
2018-05-25T10:06:59.081Z,23.75
2018-05-25T10:07:59.064Z,23.80
2018-05-25T10:08:59.050Z,23.70
2018-05-25T10:09:59.034Z,23.47
2018-05-25T10:10:59.019Z,23.42
2018-05-25T10:11:59.005Z,23.55
2018-05-25T10:12:58.991Z,23.64
2018-05-25T10:13:58.975Z,23.75
2018-05-25T10:14:58.961Z,23.68
2018-05-25T10:15:58.950Z,23.76
2018-05-25T10:16:58.933Z,23.89
2018-05-25T10:17:59.683Z,24.00
2018-05-25T10:18:58.903Z,24.22
2018-05-25T10:19:58.888Z,24.20
2018-05-25T10:20:58.874Z,24.23
2018-05-25T10:21:58.858Z,23.98
2018-05-25T10:22:58.847Z,23.97
2018-05-25T10:23:58.831Z,23.98
2018-05-25T10:24:58.815Z,24.14
2018-05-25T10:25:58.801Z,24.14
2018-05-25T10:26:58.792Z,24.14
2018-05-25T10:27:58.772Z,24.22
2018-05-25T10:28:58.757Z,24.12
2018-05-25T10:29:58.743Z,24.10
2018-05-25T10:30:58.729Z,24.22
2018-05-25T10:31:58.717Z,24.24
2018-05-25T10:32:58.700Z,24.16
2018-05-25T10:33:58.686Z,23.98
2018-05-25T10:34:58.715Z,24.16
2018-05-25T10:35:58.658Z,24.24
2018-05-25T10:36:58.643Z,24.27
2018-05-25T10:37:58.628Z,24.26
2018-05-25T10:38:58.614Z,24.13
2018-05-25T10:39:59.350Z,24.14
2018-05-25T10:40:58.630Z,24.17
2018-05-25T10:41:58.570Z,24.14
2018-05-25T10:42:58.556Z,24.12
2018-05-25T10:43:58.541Z,24.20
2018-05-25T10:44:58.527Z,24.35
2018-05-25T10:45:58.512Z,24.39
2018-05-25T10:46:58.498Z,24.42
2018-05-25T10:47:58.484Z,24.52
2018-05-25T10:48:58.471Z,24.75
2018-05-25T10:49:58.457Z,24.71
2018-05-25T10:50:58.447Z,24.76
2018-05-25T10:51:58.428Z,24.76
2018-05-25T10:52:58.415Z,24.82
2018-05-25T10:53:58.399Z,24.52
2018-05-25T10:54:58.387Z,24.54
2018-05-25T10:55:58.421Z,24.53
2018-05-25T10:56:58.359Z,24.53
2018-05-25T10:57:58.343Z,24.50
2018-05-25T10:58:58.330Z,24.53
2018-05-25T10:59:58.317Z,24.52
2018-05-25T11:00:58.304Z,24.53
2018-05-25T11:01:58.289Z,24.75
2018-05-25T11:02:58.275Z,24.83
2018-05-25T11:03:58.261Z,24.90
2018-05-25T11:04:58.246Z,24.92
2018-05-25T11:05:58.232Z,25.00
2018-05-25T11:06:58.218Z,25.17
2018-05-25T11:07:58.205Z,25.19
2018-05-25T11:08:58.191Z,25.07
2018-05-25T11:09:58.218Z,25.00
2018-05-25T11:10:58.162Z,25.06
2018-05-25T11:11:58.149Z,25.00
2018-05-25T11:12:58.136Z,25.02
2018-05-25T11:13:58.123Z,25.22
2018-05-25T11:14:58.109Z,25.27
2018-05-25T11:15:58.095Z,25.20
2018-05-25T11:16:58.082Z,25.24
2018-05-25T11:17:58.068Z,25.34
2018-05-25T11:18:58.053Z,25.22
2018-05-25T11:19:58.040Z,25.17
2018-05-25T11:20:58.033Z,25.42
2018-05-25T11:21:58.012Z,25.47
2018-05-25T11:22:57.999Z,25.65
2018-05-25T11:23:57.986Z,25.68
2018-05-25T11:24:57.974Z,25.64
2018-05-25T11:25:57.959Z,25.79
2018-05-25T11:26:58.043Z,25.38
2018-05-25T11:27:57.932Z,25.44
2018-05-25T11:28:57.921Z,25.37
2018-05-25T11:29:57.913Z,25.42
2018-05-25T11:30:57.893Z,25.24
2018-05-25T11:31:57.879Z,25.31
2018-05-25T11:32:57.866Z,25.32
2018-05-25T11:33:57.852Z,25.24
2018-05-25T11:34:57.838Z,25.50
2018-05-25T11:35:57.825Z,25.59
2018-05-25T11:36:57.812Z,25.59
2018-05-25T11:37:57.803Z,25.53
2018-05-25T11:38:57.789Z,25.47
2018-05-25T11:39:57.772Z,25.79
2018-05-25T11:40:57.759Z,25.86
2018-05-25T11:41:57.744Z,25.94
2018-05-25T11:42:57.733Z,26.05
2018-05-25T11:43:57.720Z,26.05
2018-05-25T11:44:57.707Z,26.28
2018-05-25T11:45:57.692Z,26.44
2018-05-25T11:46:57.680Z,26.47
2018-05-25T11:47:57.670Z,26.64
2018-05-25T11:48:57.654Z,26.58
2018-05-25T11:49:57.641Z,26.20
2018-05-25T11:50:57.630Z,26.15
2018-05-25T11:51:57.615Z,25.98
2018-05-25T11:52:57.617Z,25.98
2018-05-25T11:53:57.589Z,26.06
2018-05-25T11:54:57.576Z,25.84
2018-05-25T11:55:57.562Z,25.65
2018-05-25T11:56:57.550Z,25.64
2018-05-25T11:57:57.536Z,25.72
2018-05-25T11:58:58.278Z,25.71
2018-05-25T11:59:57.517Z,25.80
2018-05-25T12:00:57.499Z,25.83
2018-05-25T12:01:57.484Z,25.99
2018-05-25T12:02:57.471Z,25.82
2018-05-25T12:03:57.459Z,25.97
2018-05-25T12:04:57.449Z,25.94
2018-05-25T12:05:57.435Z,25.83
2018-05-25T12:06:57.420Z,25.90
2018-05-25T12:07:57.407Z,25.86
2018-05-25T12:08:57.396Z,25.77
2018-05-25T12:09:57.382Z,25.47
2018-05-25T12:10:57.369Z,25.19
2018-05-25T12:11:57.354Z,25.34
2018-05-25T12:12:57.342Z,25.49
2018-05-25T12:13:57.328Z,25.61
2018-05-25T12:14:57.315Z,25.49
2018-05-25T12:15:57.303Z,25.61
2018-05-25T12:16:57.289Z,25.65
2018-05-25T12:17:57.276Z,25.86
2018-05-25T12:18:57.262Z,26.09
2018-05-25T12:19:57.250Z,26.12
2018-05-25T12:20:57.238Z,26.29
2018-05-25T12:21:57.229Z,26.29
2018-05-25T12:22:57.211Z,26.25
2018-05-25T12:23:57.198Z,26.35
2018-05-25T12:24:57.185Z,26.06
2018-05-25T12:25:57.172Z,25.83
2018-05-25T12:26:57.160Z,25.91
2018-05-25T12:27:57.145Z,25.98
2018-05-25T12:28:57.133Z,25.97
2018-05-25T12:29:57.120Z,25.98
2018-05-25T12:30:57.111Z,25.99
2018-05-25T12:31:57.094Z,26.11
2018-05-25T12:32:57.082Z,26.12
2018-05-25T12:33:57.067Z,25.87
2018-05-25T12:34:57.055Z,25.97
2018-05-25T12:35:57.045Z,26.08
2018-05-25T12:36:57.030Z,26.17
2018-05-25T12:37:57.015Z,26.15
2018-05-25T12:38:57.003Z,26.32
2018-05-25T12:39:56.991Z,26.39
2018-05-25T12:40:56.977Z,26.29
2018-05-25T12:41:56.965Z,26.42
2018-05-25T12:42:56.956Z,26.50
2018-05-25T12:43:56.940Z,26.50
2018-05-25T12:44:56.926Z,26.05
2018-05-25T12:45:56.913Z,25.82
2018-05-25T12:46:56.901Z,25.98
2018-05-25T12:47:56.887Z,25.98
2018-05-25T12:48:56.875Z,25.89
2018-05-25T12:49:56.861Z,25.99
2018-05-25T12:50:56.848Z,26.11
2018-05-25T12:51:56.835Z,26.29